createdAt,value
2022-12-01T00:01:34.265Z,102595.38
2022-12-01T00:04:02.454Z,102595.34
2022-12-01T00:06:31.940Z,102589.28
2022-12-01T00:09:19.913Z,102592.00
2022-12-01T00:11:48.648Z,102586.59
2022-12-01T00:14:17.602Z,102588.50
2022-12-01T00:16:45.904Z,102598.03
2022-12-01T00:19:17.845Z,102585.75
2022-12-01T00:21:48.196Z,102596.25
2022-12-01T00:24:16.319Z,102588.34
2022-12-01T00:26:44.325Z,102590.97
2022-12-01T00:29:12.379Z,102587.44
2022-12-01T00:31:40.475Z,102582.25
2022-12-01T00:34:23.365Z,102589.94
2022-12-01T00:36:53.065Z,102586.56
2022-12-01T00:39:21.162Z,102589.97
2022-12-01T00:41:49.209Z,102583.03
2022-12-01T00:44:17.240Z,102586.38
2022-12-01T00:46:45.256Z,102591.63
2022-12-01T00:49:14.087Z,102590.75
2022-12-01T00:51:42.114Z,102586.41
2022-12-01T00:54:11.560Z,102592.56
2022-12-01T00:56:39.583Z,102590.00
2022-12-01T00:59:07.673Z,102591.66
2022-12-01T01:01:35.890Z,102591.59
2022-12-01T01:04:04.282Z,102584.88
2022-12-01T01:06:32.338Z,102584.94
2022-12-01T01:09:00.484Z,102590.97
2022-12-01T01:11:29.906Z,102586.59
2022-12-01T01:13:59.800Z,102586.69
2022-12-01T01:16:27.911Z,102589.25
2022-12-01T01:18:56.044Z,102591.91
2022-12-01T01:21:24.480Z,102589.16
2022-12-01T01:23:53.834Z,102587.63
2022-12-01T01:26:24.647Z,102594.47
2022-12-01T01:28:56.799Z,102599.66
2022-12-01T01:31:27.612Z,102596.25
2022-12-01T01:33:56.967Z,102604.81
2022-12-01T01:36:26.362Z,102603.16
2022-12-01T01:38:55.325Z,102607.53
2022-12-01T01:41:26.755Z,102607.56
2022-12-01T01:43:58.162Z,102610.16
2022-12-01T01:46:28.263Z,102612.78
2022-12-01T01:49:00.307Z,102606.69
2022-12-01T01:51:34.542Z,102611.22
2022-12-01T01:54:07.693Z,102615.53
2022-12-01T01:56:37.781Z,102618.09
2022-12-01T01:59:07.342Z,102602.47
2022-12-01T02:01:35.621Z,102606.75
2022-12-01T02:04:04.321Z,102607.66
2022-12-01T02:06:32.420Z,102608.47
2022-12-01T02:09:00.482Z,102605.97
2022-12-01T02:12:05.693Z,102606.78
2022-12-01T02:14:56.547Z,102605.88
2022-12-01T02:17:37.512Z,102612.88
2022-12-01T02:20:53.628Z,102607.63
2022-12-01T02:23:31.010Z,102605.97
2022-12-01T02:26:17.602Z,102605.97
2022-12-01T02:29:12.184Z,102606.06
2022-12-01T02:31:48.689Z,102602.50
2022-12-01T02:34:25.348Z,102606.03
2022-12-01T02:36:59.401Z,102601.69
2022-12-01T02:39:33.960Z,102604.22
2022-12-01T02:42:07.995Z,102606.00
2022-12-01T02:44:40.429Z,102606.00
2022-12-01T02:47:14.815Z,102608.63
2022-12-01T02:49:48.656Z,102610.31
2022-12-01T02:52:18.139Z,102610.28
2022-12-01T02:54:48.370Z,102612.00
2022-12-01T02:57:18.450Z,102616.31
2022-12-01T02:59:51.353Z,102612.06
2022-12-01T03:02:31.321Z,102610.25
2022-12-01T03:05:05.042Z,102611.88
2022-12-01T03:07:46.353Z,102611.91
2022-12-01T03:10:24.122Z,102611.94
2022-12-01T03:13:05.628Z,102612.06
2022-12-01T03:15:40.914Z,102612.84
2022-12-01T03:18:26.797Z,102620.63
2022-12-01T03:21:00.469Z,102617.19
2022-12-01T03:23:32.518Z,102611.19
2022-12-01T03:26:07.120Z,102619.91
2022-12-01T03:28:40.980Z,102615.47
2022-12-01T03:31:14.670Z,102611.13
2022-12-01T03:33:49.196Z,102605.88
2022-12-01T03:36:23.846Z,102614.47
2022-12-01T03:38:56.573Z,102610.16
2022-12-01T03:41:26.887Z,102606.72
2022-12-01T03:44:02.174Z,102605.09
2022-12-01T03:46:41.260Z,102606.78
2022-12-01T03:49:11.568Z,102605.88
2022-12-01T03:51:46.753Z,102601.56
2022-12-01T03:54:20.575Z,102609.53
2022-12-01T03:56:53.100Z,102606.81
2022-12-01T03:59:23.745Z,102611.22
2022-12-01T04:01:53.138Z,102618.22
2022-12-01T04:04:22.719Z,102619.88
2022-12-01T04:06:51.494Z,102623.31
2022-12-01T04:09:19.706Z,102625.94
2022-12-01T04:12:04.945Z,102628.56
2022-12-01T04:14:33.030Z,102622.41
2022-12-01T04:17:01.134Z,102630.34
2022-12-01T04:19:30.571Z,102626.81
2022-12-01T04:21:58.645Z,102625.94
2022-12-01T04:24:26.706Z,102619.88
2022-12-01T04:26:55.030Z,102619.03
2022-12-01T04:29:23.398Z,102620.72
2022-12-01T04:31:51.514Z,102615.50
2022-12-01T04:34:19.606Z,102619.81
2022-12-01T04:36:49.022Z,102620.75
2022-12-01T04:39:17.482Z,102624.28
2022-12-01T04:41:45.689Z,102619.06
2022-12-01T04:44:13.974Z,102621.56
2022-12-01T04:46:42.190Z,102614.75
2022-12-01T04:49:10.563Z,102613.81
2022-12-01T04:51:38.587Z,102617.28
2022-12-01T04:54:08.007Z,102624.25
2022-12-01T04:56:36.039Z,102612.13
2022-12-01T04:59:04.203Z,102618.22
2022-12-01T05:01:32.757Z,102614.75
2022-12-01T05:04:00.869Z,102619.22
2022-12-01T05:06:30.452Z,102606.97
2022-12-01T05:09:01.263Z,102613.06
2022-12-01T05:11:32.578Z,102614.81
2022-12-01T05:14:01.197Z,102612.25
2022-12-01T05:16:31.872Z,102607.00
2022-12-01T05:19:20.398Z,102616.50
2022-12-01T05:21:50.481Z,102604.50
2022-12-01T05:24:20.118Z,102615.69
2022-12-01T05:26:50.704Z,102613.19
2022-12-01T05:29:18.929Z,102616.66
2022-12-01T05:31:47.466Z,102608.84
2022-12-01T05:34:15.852Z,102619.16
2022-12-01T05:36:43.935Z,102620.03
2022-12-01T05:39:12.131Z,102616.59
2022-12-01T05:41:40.164Z,102627.03
2022-12-01T05:44:09.883Z,102625.16
2022-12-01T05:46:37.981Z,102631.19
2022-12-01T05:49:07.058Z,102626.97
2022-12-01T05:51:35.132Z,102626.03
2022-12-01T05:54:03.505Z,102628.66
2022-12-01T05:56:31.681Z,102629.47
2022-12-01T05:58:59.746Z,102628.72
2022-12-01T06:01:29.276Z,102641.75
2022-12-01T06:03:57.468Z,102643.56
2022-12-01T06:06:25.552Z,102640.97
2022-12-01T06:08:53.574Z,102631.44
2022-12-01T06:11:21.857Z,102636.66
2022-12-01T06:13:49.957Z,102638.44
2022-12-01T06:16:18.055Z,102640.28
2022-12-01T06:18:47.556Z,102648.09
2022-12-01T06:21:15.628Z,102642.81
2022-12-01T06:23:43.626Z,102650.66
2022-12-01T06:26:11.803Z,102641.94
2022-12-01T06:28:39.948Z,102646.41
2022-12-01T06:31:08.104Z,102649.00
2022-12-01T06:33:36.133Z,102653.38
2022-12-01T06:36:07.173Z,102650.78
2022-12-01T06:38:37.276Z,102647.38
2022-12-01T06:41:06.367Z,102649.13
2022-12-01T06:43:36.998Z,102649.19
2022-12-01T06:46:05.564Z,102653.47
2022-12-01T06:48:34.516Z,102651.69
2022-12-01T06:51:03.192Z,102658.59
2022-12-01T06:53:32.733Z,102661.22
2022-12-01T06:56:01.681Z,102656.03
2022-12-01T06:58:30.009Z,102658.72
2022-12-01T07:00:58.933Z,102668.16
2022-12-01T07:03:27.532Z,102662.00
2022-12-01T07:06:00.985Z,102667.19
2022-12-01T07:08:30.153Z,102669.88
2022-12-01T07:11:01.064Z,102661.28
2022-12-01T07:13:33.316Z,102666.41
2022-12-01T07:16:03.231Z,102671.63
2022-12-01T07:18:32.194Z,102669.91
2022-12-01T07:21:01.923Z,102672.50
2022-12-01T07:23:31.515Z,102677.69
2022-12-01T07:26:01.883Z,102678.56
2022-12-01T07:28:30.404Z,102682.91
2022-12-01T07:31:03.436Z,102680.28
2022-12-01T07:33:32.356Z,102682.03
2022-12-01T07:36:00.844Z,102680.34
2022-12-01T07:38:29.771Z,102685.56
2022-12-01T07:41:04.998Z,102691.53
2022-12-01T07:43:34.046Z,102688.94
2022-12-01T07:46:09.966Z,102684.63
2022-12-01T07:48:39.385Z,102687.25
2022-12-01T07:51:09.077Z,102683.78
2022-12-01T07:53:37.643Z,102686.38
2022-12-01T07:56:08.893Z,102685.56
2022-12-01T07:58:38.193Z,102689.84
2022-12-01T08:01:09.977Z,102687.25
2022-12-01T08:03:38.213Z,102689.88
2022-12-01T08:06:07.594Z,102693.22
2022-12-01T08:08:37.230Z,102699.34
2022-12-01T08:11:08.819Z,102692.31
2022-12-01T08:13:36.924Z,102690.63
2022-12-01T08:16:06.177Z,102694.03
2022-12-01T08:18:35.615Z,102694.03
2022-12-01T08:21:04.443Z,102697.50
2022-12-01T08:23:32.858Z,102705.34
2022-12-01T08:26:03.690Z,102698.38
2022-12-01T08:28:33.634Z,102703.53
2022-12-01T08:31:10.248Z,102707.84
2022-12-01T08:33:38.494Z,102707.84
2022-12-01T08:36:08.071Z,102700.06
2022-12-01T08:38:36.189Z,102700.84
2022-12-01T08:41:06.250Z,102712.16
2022-12-01T08:46:28.784Z,102715.59
2022-12-01T08:48:57.871Z,102711.19
2022-12-01T08:51:26.949Z,102712.88
2022-12-01T08:53:56.756Z,102712.00
2022-12-01T08:56:26.907Z,102717.19
2022-12-01T08:58:56.752Z,102713.69
2022-12-01T09:01:25.835Z,102715.41
2022-12-01T09:04:06.129Z,102710.97
2022-12-01T09:06:36.088Z,102714.41
2022-12-01T09:09:04.600Z,102717.00
2022-12-01T09:11:32.992Z,102717.91
2022-12-01T09:14:03.226Z,102716.09
2022-12-01T09:16:31.534Z,102718.66
2022-12-01T09:18:59.736Z,102713.53
2022-12-01T09:21:31.515Z,102717.78
2022-12-01T09:23:59.807Z,102708.97
2022-12-01T09:26:28.599Z,102711.69
2022-12-01T09:28:58.782Z,102715.00
2022-12-01T09:31:28.640Z,102715.81
2022-12-01T09:33:57.559Z,102714.19
2022-12-01T09:36:26.286Z,102708.00
2022-12-01T09:38:54.547Z,102711.41
2022-12-01T09:41:26.319Z,102724.41
2022-12-01T09:44:00.219Z,102720.97
2022-12-01T09:46:36.612Z,102720.06
2022-12-01T09:49:07.668Z,102722.63
2022-12-01T09:51:37.593Z,102718.28
2022-12-01T09:54:06.009Z,102724.31
2022-12-01T09:56:41.517Z,102717.38
2022-12-01T09:59:18.702Z,102719.03
2022-12-01T10:01:52.043Z,102718.94
2022-12-01T10:04:26.795Z,102711.97
2022-12-01T10:07:01.954Z,102704.94
2022-12-01T10:09:37.718Z,102706.72
2022-12-01T10:12:14.832Z,102703.31
2022-12-01T10:14:45.121Z,102702.50
2022-12-01T10:17:22.850Z,102703.44
2022-12-01T10:20:00.853Z,102696.50
2022-12-01T10:22:53.403Z,102692.84
2022-12-01T10:25:24.382Z,102697.19
2022-12-01T10:28:45.425Z,102698.03
2022-12-01T10:31:21.141Z,102695.41
2022-12-01T10:34:02.555Z,102683.94
2022-12-01T10:36:34.853Z,102682.91
2022-12-01T10:39:04.719Z,102684.53
2022-12-01T10:41:36.237Z,102681.81
2022-12-01T10:44:06.985Z,102688.66
2022-12-01T10:46:42.505Z,102674.47
2022-12-01T10:49:13.724Z,102679.56
2022-12-01T10:51:51.411Z,102683.88
2022-12-01T10:54:20.430Z,102679.72
2022-12-01T10:56:49.980Z,102669.09
2022-12-01T10:59:26.252Z,102674.28
2022-12-01T11:01:55.343Z,102678.56
2022-12-01T11:04:37.662Z,102683.75
2022-12-01T11:07:06.129Z,102687.44
2022-12-01T11:09:34.225Z,102684.94
2022-12-01T11:12:04.901Z,102681.53
2022-12-01T11:14:44.560Z,102679.56
2022-12-01T11:17:24.848Z,102676.03
2022-12-01T11:20:18.000Z,102671.84
2022-12-01T11:22:46.350Z,102667.44
2022-12-01T11:25:21.742Z,102674.44
2022-12-01T11:27:54.149Z,102673.59
2022-12-01T11:30:24.263Z,102670.03
2022-12-01T11:32:55.267Z,102663.53
2022-12-01T11:35:27.248Z,102662.50
2022-12-01T11:40:48.842Z,102660.03
2022-12-01T11:43:25.628Z,102648.75
2022-12-01T11:45:55.522Z,102653.00
2022-12-01T11:48:26.759Z,102654.63
2022-12-01T11:51:16.531Z,102651.84
2022-12-01T11:53:45.578Z,102637.84
2022-12-01T11:56:20.959Z,102645.91
2022-12-01T11:58:50.750Z,102637.88
2022-12-01T12:01:33.729Z,102641.31
2022-12-01T12:04:15.123Z,102640.66
2022-12-01T12:06:52.711Z,102641.41
2022-12-01T12:09:45.799Z,102641.25
2022-12-01T12:12:21.885Z,102630.75
2022-12-01T12:15:00.252Z,102625.34
2022-12-01T12:17:44.418Z,102619.03
2022-12-01T12:20:41.726Z,102629.53
2022-12-01T12:23:34.475Z,102618.97
2022-12-01T12:26:10.888Z,102621.31
2022-12-01T12:28:52.927Z,102615.09
2022-12-01T12:31:30.462Z,102607.63
2022-12-01T12:34:15.708Z,102617.31
2022-12-01T12:36:52.376Z,102621.56
2022-12-01T12:39:35.840Z,102617.38
2022-12-01T12:42:10.567Z,102621.63
2022-12-01T12:44:50.638Z,102612.88
2022-12-01T12:47:35.503Z,102620.72
2022-12-01T12:50:16.611Z,102617.97
2022-12-01T12:52:48.194Z,102610.22
2022-12-01T12:55:23.351Z,102616.28
2022-12-01T12:57:55.123Z,102614.56
2022-12-01T13:00:26.743Z,102610.00
2022-12-01T13:02:58.705Z,102613.94
2022-12-01T13:05:32.997Z,102614.78
2022-12-01T13:08:04.496Z,102605.13
2022-12-01T13:10:40.694Z,102608.63
2022-12-01T13:13:20.480Z,102614.00
2022-12-01T13:15:50.753Z,102611.22
2022-12-01T13:18:33.940Z,102604.06
2022-12-01T13:21:03.989Z,102608.78
2022-12-01T13:23:33.639Z,102595.72
2022-12-01T13:26:08.151Z,102597.53
2022-12-01T13:28:39.237Z,102592.19
2022-12-01T13:31:10.032Z,102595.56
2022-12-01T13:33:40.740Z,102599.97
2022-12-01T13:39:03.888Z,102590.84
2022-12-01T13:41:35.473Z,102593.38
2022-12-01T13:44:07.605Z,102592.41
2022-12-01T13:46:52.511Z,102592.31
2022-12-01T13:49:42.127Z,102579.16
2022-12-01T13:52:34.246Z,102582.81
2022-12-01T13:55:24.260Z,102586.22
2022-12-01T13:58:24.149Z,102587.25
2022-12-01T14:00:52.499Z,102589.81
2022-12-01T14:03:41.858Z,102589.38
2022-12-01T14:06:22.119Z,102597.75
2022-12-01T14:08:51.551Z,102597.00
2022-12-01T14:11:23.161Z,102597.84
2022-12-01T14:13:57.120Z,102604.00
2022-12-01T14:16:48.270Z,102593.56
2022-12-01T14:19:31.552Z,102595.34
2022-12-01T14:22:01.182Z,102597.88
2022-12-01T14:24:35.510Z,102596.38
2022-12-01T14:27:04.358Z,102595.28
2022-12-01T14:29:35.544Z,102592.16
2022-12-01T14:32:25.837Z,102602.88
2022-12-01T14:35:02.259Z,102598.38
2022-12-01T14:37:50.540Z,102598.47
2022-12-01T14:40:26.691Z,102605.53
2022-12-01T14:43:15.726Z,102593.13
2022-12-01T14:45:55.657Z,102581.00
2022-12-01T14:48:29.648Z,102582.75
2022-12-01T14:51:13.282Z,102595.88
2022-12-01T14:53:45.970Z,102601.16
2022-12-01T14:56:17.475Z,102604.06
2022-12-01T14:58:54.453Z,102601.38
2022-12-01T15:01:25.595Z,102607.41
2022-12-01T15:03:57.853Z,102599.53
2022-12-01T15:06:32.173Z,102604.06
2022-12-01T15:12:00.261Z,102604.31
2022-12-01T15:14:34.347Z,102607.59
2022-12-01T15:17:05.621Z,102613.53
2022-12-01T15:19:36.761Z,102605.72
2022-12-01T15:22:07.791Z,102605.97
2022-12-01T15:24:35.935Z,102607.72
2022-12-01T15:27:04.500Z,102610.22
2022-12-01T15:29:34.282Z,102614.50
2022-12-01T15:32:07.193Z,102611.28
2022-12-01T15:34:40.558Z,102612.16
2022-12-01T15:37:14.638Z,102605.00
2022-12-01T15:39:45.425Z,102609.53
2022-12-01T15:42:24.093Z,102612.34
2022-12-01T15:45:00.548Z,102605.44
2022-12-01T15:47:37.011Z,102616.63
2022-12-01T15:50:07.481Z,102617.66
2022-12-01T15:52:43.607Z,102614.25
2022-12-01T15:55:24.738Z,102615.09
2022-12-01T15:57:52.941Z,102616.91
2022-12-01T16:00:22.277Z,102616.16
2022-12-01T16:02:55.203Z,102607.47
2022-12-01T16:05:26.482Z,102606.53
2022-12-01T16:10:42.832Z,102607.22
2022-12-01T16:13:47.225Z,102606.34
2022-12-01T16:16:29.985Z,102609.84
2022-12-01T16:19:00.936Z,102608.91
2022-12-01T16:21:31.879Z,102603.78
2022-12-01T16:24:02.267Z,102602.13
2022-12-01T16:26:31.055Z,102600.53
2022-12-01T16:28:59.865Z,102601.50
2022-12-01T16:31:28.284Z,102607.47
2022-12-01T16:34:18.655Z,102603.13
2022-12-01T16:36:52.957Z,102607.47
2022-12-01T16:39:23.520Z,102608.28
2022-12-01T16:41:53.687Z,102607.34
2022-12-01T16:44:28.490Z,102600.53
2022-12-01T16:46:57.478Z,102604.97
2022-12-01T16:49:26.907Z,102610.28
2022-12-01T16:51:56.765Z,102594.53
2022-12-01T16:54:25.590Z,102593.56
2022-12-01T16:56:53.861Z,102600.63
2022-12-01T16:59:21.883Z,102605.75
2022-12-01T17:01:50.222Z,102604.94
2022-12-01T17:04:18.386Z,102614.47
2022-12-01T17:06:47.902Z,102606.66
2022-12-01T17:09:15.918Z,102617.94
2022-12-01T17:11:44.126Z,102611.88
2022-12-01T17:14:12.186Z,102609.22
2022-12-01T17:16:40.256Z,102611.00
2022-12-01T17:19:08.305Z,102605.84
2022-12-01T17:21:36.386Z,102604.97
2022-12-01T17:24:08.801Z,102605.88
2022-12-01T17:26:37.591Z,102610.16
2022-12-01T17:29:05.687Z,102616.28
2022-12-01T17:31:33.761Z,102613.91
2022-12-01T17:34:01.873Z,102614.69
2022-12-01T17:36:29.889Z,102607.97
2022-12-01T17:38:58.834Z,102614.84
2022-12-01T17:41:32.534Z,102622.72
2022-12-01T17:44:03.259Z,102618.34
2022-12-01T17:46:31.803Z,102618.41
2022-12-01T17:49:00.214Z,102621.00
2022-12-01T17:51:28.292Z,102619.31
2022-12-01T17:53:56.628Z,102614.00
2022-12-01T17:56:24.625Z,102621.00
2022-12-01T17:58:54.433Z,102615.88
2022-12-01T18:01:26.946Z,102614.09
2022-12-01T18:03:58.634Z,102613.25
2022-12-01T18:06:27.021Z,102620.94
2022-12-01T18:08:55.157Z,102622.84
2022-12-01T18:11:24.173Z,102617.66
2022-12-01T18:13:54.883Z,102620.34
2022-12-01T18:16:25.077Z,102625.63
2022-12-01T18:18:54.127Z,102626.41
2022-12-01T18:21:24.387Z,102617.72
2022-12-01T18:23:53.364Z,102614.28
2022-12-01T18:26:22.490Z,102622.00
2022-12-01T18:28:56.384Z,102615.09
2022-12-01T18:31:25.486Z,102615.97
2022-12-01T18:33:54.101Z,102621.19
2022-12-01T18:36:23.944Z,102618.59
2022-12-01T18:38:53.563Z,102609.97
2022-12-01T18:41:22.076Z,102614.38
2022-12-01T18:43:52.895Z,102610.75
2022-12-01T18:46:23.034Z,102609.91
2022-12-01T18:48:52.492Z,102604.72
2022-12-01T18:51:21.903Z,102608.22
2022-12-01T18:53:49.982Z,102601.31
2022-12-01T18:56:19.774Z,102603.06
2022-12-01T18:58:48.068Z,102604.75
2022-12-01T19:01:23.755Z,102603.13
2022-12-01T19:03:52.093Z,102605.84
2022-12-01T19:06:20.184Z,102597.97
2022-12-01T19:08:48.524Z,102603.91
2022-12-01T19:11:19.712Z,102602.31
2022-12-01T19:13:48.741Z,102606.63
2022-12-01T19:16:18.922Z,102613.66
2022-12-01T19:18:49.326Z,102600.56
2022-12-01T19:21:20.455Z,102604.94
2022-12-01T19:23:49.513Z,102603.25
2022-12-01T19:26:19.953Z,102605.75
2022-12-01T19:28:49.099Z,102603.25
2022-12-01T19:31:25.009Z,102608.41
2022-12-01T19:33:55.852Z,102600.63
2022-12-01T19:36:26.636Z,102606.63
2022-12-01T19:38:57.846Z,102604.16
2022-12-01T19:41:26.756Z,102610.38
2022-12-01T19:43:55.821Z,102608.56
2022-12-01T19:46:27.066Z,102604.28
2022-12-01T19:48:59.139Z,102606.88
2022-12-01T19:51:29.426Z,102609.34
2022-12-01T19:53:57.824Z,102606.94
2022-12-01T19:56:26.274Z,102611.13
2022-12-01T19:58:54.376Z,102609.41
2022-12-01T20:01:22.550Z,102608.56
2022-12-01T20:03:53.007Z,102608.63
2022-12-01T20:06:25.394Z,102614.66
2022-12-01T20:08:57.085Z,102609.41
2022-12-01T20:11:25.874Z,102612.91
2022-12-01T20:13:54.184Z,102611.28
2022-12-01T20:16:24.044Z,102612.22
2022-12-01T20:18:55.278Z,102612.16
2022-12-01T20:21:26.227Z,102605.31
2022-12-01T20:23:59.693Z,102607.91
2022-12-01T20:26:31.131Z,102610.47
2022-12-01T20:29:02.059Z,102610.31
2022-12-01T20:31:31.925Z,102612.97
2022-12-01T20:34:03.065Z,102602.47
2022-12-01T20:36:32.844Z,102602.47
2022-12-01T20:39:01.449Z,102598.13
2022-12-01T20:41:29.603Z,102606.84
2022-12-01T20:44:01.238Z,102599.03
2022-12-01T20:46:34.735Z,102601.69
2022-12-01T20:49:03.038Z,102606.00
2022-12-01T20:51:34.025Z,102595.53
2022-12-01T20:56:50.959Z,102598.16
2022-12-01T20:59:19.147Z,102600.88
2022-12-01T21:01:47.263Z,102594.75
2022-12-01T21:04:16.340Z,102598.25
2022-12-01T21:06:46.527Z,102592.28
2022-12-01T21:09:16.002Z,102594.84
2022-12-01T21:12:04.201Z,102587.94
2022-12-01T21:14:37.999Z,102592.22
2022-12-01T21:17:17.372Z,102587.94
2022-12-01T21:19:51.558Z,102580.88
2022-12-01T21:22:21.265Z,102586.19
2022-12-01T21:24:53.373Z,102581.06
2022-12-01T21:27:21.561Z,102586.25
2022-12-01T21:29:51.211Z,102572.34
2022-12-01T21:32:24.423Z,102570.56
2022-12-01T21:34:52.799Z,102573.94
2022-12-01T21:37:24.374Z,102566.13
2022-12-01T21:39:54.153Z,102557.53
2022-12-01T21:42:26.366Z,102548.78
2022-12-01T21:44:55.070Z,102553.91
2022-12-01T21:47:25.295Z,102546.22
2022-12-01T21:49:54.944Z,102547.91
2022-12-01T21:52:30.198Z,102546.97
2022-12-01T21:55:03.524Z,102544.34
2022-12-01T21:57:42.778Z,102547.09
2022-12-01T22:00:28.967Z,102548.78
2022-12-01T22:03:23.031Z,102547.88
2022-12-01T22:06:21.340Z,102555.06
2022-12-01T22:08:46.816Z,102558.50
2022-12-01T22:11:18.696Z,102558.50
2022-12-01T22:13:50.560Z,102566.38
2022-12-01T22:16:21.726Z,102555.94
2022-12-01T22:18:52.974Z,102549.00
2022-12-01T22:21:36.835Z,102555.06
2022-12-01T22:24:33.844Z,102551.72
2022-12-01T22:27:22.600Z,102555.16
2022-12-01T22:29:52.557Z,102559.47
2022-12-01T22:32:39.115Z,102555.13
2022-12-01T22:35:23.938Z,102568.25
2022-12-01T22:37:53.472Z,102570.06
2022-12-01T22:40:44.588Z,102554.47
2022-12-01T22:43:30.203Z,102559.78
2022-12-01T22:46:17.662Z,102559.06
2022-12-01T22:48:48.685Z,102563.50
2022-12-01T22:51:29.035Z,102577.44
2022-12-01T22:54:07.410Z,102560.88
2022-12-01T22:56:40.961Z,102560.94
2022-12-01T22:59:16.683Z,102566.22
2022-12-01T23:01:49.781Z,102563.66
2022-12-01T23:04:26.462Z,102559.44
2022-12-01T23:07:00.237Z,102558.63
2022-12-01T23:09:33.464Z,102558.69
2022-12-01T23:12:15.149Z,102554.31
2022-12-01T23:14:46.252Z,102556.97
2022-12-01T23:17:19.909Z,102550.91
2022-12-01T23:19:49.469Z,102557.84
2022-12-01T23:22:17.851Z,102554.34
2022-12-01T23:24:46.418Z,102553.53
2022-12-01T23:27:17.385Z,102556.09
2022-12-01T23:29:45.994Z,102552.66
2022-12-01T23:32:14.399Z,102548.31
2022-12-01T23:34:42.538Z,102544.88
2022-12-01T23:37:35.058Z,102540.53
2022-12-01T23:40:09.109Z,102538.00
2022-12-01T23:42:38.709Z,102542.34
2022-12-01T23:45:15.492Z,102544.06
2022-12-01T23:47:43.902Z,102544.03
2022-12-01T23:50:20.164Z,102536.31
2022-12-01T23:52:48.335Z,102534.50
2022-12-01T23:55:22.732Z,102529.25
2022-12-01T23:57:52.761Z,102533.66
